Time;durP1;ratioP1;P1;durP2;ratioP2;P2;SDS_P1;SDS_P2;PMS_P1;PMS_P2;Temp;Humidity;BMP_temperature;BMP_pressure;BME280_temperature;BME280_humidity;BME280_pressure;Samples;Min_cycle;Max_cycle;Signal;HPM_P1;HPM_P2
2022/10/10 00:02:11;;;;;;;0.20;0.20;;;;;;;8.26;92.18;100610.53;5032915;28;20176;-73
2022/10/10 00:04:37;;;;;;;0.00;0.00;;;;;;;8.29;91.66;100618.13;5032963;28;20249;-74
2022/10/10 00:07:03;;;;;;;0.07;0.07;;;;;;;8.24;91.08;100608.09;5033033;28;20646;-73
2022/10/10 00:09:28;;;;;;;0.10;0.10;;;;;;;8.25;91.01;100611.66;5032791;28;20176;-73
2022/10/10 00:11:53;;;;;;;0.00;0.00;;;;;;;8.22;90.97;100598.59;5032943;28;20185;-73
2022/10/10 00:14:19;;;;;;;0.00;0.00;;;;;;;8.06;91.11;100595.25;5032808;28;20539;-72
2022/10/10 00:16:44;;;;;;;0.00;0.00;;;;;;;7.91;92.31;100598.16;5031228;28;20187;-73
2022/10/10 00:19:11;;;;;;;0.00;0.00;;;;;;;7.89;91.97;100595.72;5032740;28;20624;-73
2022/10/10 00:21:36;;;;;;;0.00;0.00;;;;;;;7.81;91.97;100590.09;5031515;28;20259;-73
2022/10/10 00:24:02;;;;;;;0.00;0.00;;;;;;;7.63;92.50;100591.66;5032693;28;20183;-73
2022/10/10 00:26:27;;;;;;;0.00;0.00;;;;;;;7.54;93.19;100591.50;5032337;28;20190;-73
2022/10/10 00:28:53;;;;;;;0.00;0.00;;;;;;;7.50;93.97;100592.34;5032624;28;20254;-73
2022/10/10 00:31:18;;;;;;;0.00;0.00;;;;;;;7.59;94.58;100583.28;5032701;28;20659;-73
2022/10/10 00:33:44;;;;;;;0.00;0.00;;;;;;;7.57;94.00;100574.59;5031206;28;20176;-73
2022/10/10 00:36:09;;;;;;;0.00;0.00;;;;;;;7.51;94.65;100581.19;5032064;28;20200;-73
2022/10/10 00:38:35;;;;;;;0.00;0.00;;;;;;;7.53;94.83;100584.44;5032401;28;20226;-73
2022/10/10 00:41:00;;;;;;;0.00;0.00;;;;;;;7.62;94.45;100569.09;5032343;28;20207;-73
2022/10/10 00:43:26;;;;;;;0.00;0.00;;;;;;;7.54;94.96;100556.16;5032351;28;20226;-73
2022/10/10 00:45:51;;;;;;;0.00;0.00;;;;;;;7.58;94.46;100561.81;5031905;28;20543;-73
2022/10/10 00:48:39;;;;;;;0.00;0.00;;;;;;;7.50;94.79;100567.88;5032216;28;20616;-73
2022/10/10 00:51:13;;;;;;;0.00;0.00;;;;;;;7.43;95.71;100565.50;5031740;28;20266;-73
2022/10/10 00:53:49;;;;;;;0.00;0.00;;;;;;;7.42;95.50;100559.25;5032083;28;20222;-73
2022/10/10 00:56:18;;;;;;;0.00;0.00;;;;;;;7.45;95.67;100561.41;5032251;28;20218;-73
2022/10/10 00:58:49;;;;;;;0.00;0.00;;;;;;;7.67;95.76;100562.81;5031935;28;20203;-73
2022/10/10 01:01:14;;;;;;;0.00;0.00;;;;;;;7.69;94.99;100556.00;5031704;28;20620;-72
2022/10/10 01:03:39;;;;;;;0.10;0.10;;;;;;;7.72;94.19;100568.19;5031898;28;20261;-73
2022/10/10 01:06:05;;;;;;;0.00;0.00;;;;;;;7.72;94.38;100558.13;5030477;28;20687;-72
2022/10/10 01:08:31;;;;;;;0.00;0.00;;;;;;;7.79;93.34;100560.47;5031959;28;20188;-73
2022/10/10 01:11:09;;;;;;;0.00;0.00;;;;;;;7.82;92.87;100556.41;5031791;28;20172;-73
2022/10/10 01:13:48;;;;;;;0.00;0.00;;;;;;;8.02;93.24;100554.22;5031833;28;20274;-74
2022/10/10 01:16:34;;;;;;;0.67;0.67;;;;;;;8.20;91.76;100560.78;5031815;28;20195;-74
2022/10/10 01:19:29;;;;;;;0.00;0.00;;;;;;;8.16;90.86;100557.03;5032945;28;20197;-74
2022/10/10 01:21:57;;;;;;;0.00;0.00;;;;;;;8.08;90.79;100563.13;5031691;28;20222;-74
2022/10/10 01:24:36;;;;;;;0.00;0.00;;;;;;;7.91;92.33;100547.28;5031533;28;20164;-74
2022/10/10 01:27:26;;;;;;;0.00;0.00;;;;;;;7.58;92.89;100540.88;5031610;28;20230;-74
2022/10/10 01:30:07;;;;;;;0.00;0.00;;;;;;;7.55;93.40;100536.03;5032147;28;20222;-74
2022/10/10 01:32:46;;;;;;;0.00;0.00;;;;;;;7.56;93.39;100534.13;5013620;28;20344;-73
2022/10/10 01:35:35;;;;;;;0.00;0.00;;;;;;;7.59;93.26;100531.63;5026594;28;20302;-73
2022/10/10 01:38:28;;;;;;;0.00;0.00;;;;;;;7.57;93.77;100531.09;5015637;28;20191;-73
2022/10/10 01:40:53;;;;;;;0.00;0.00;;;;;;;7.49;93.29;100520.03;5011413;28;20648;-74
2022/10/10 01:43:18;;;;;;;0.00;0.00;;;;;;;7.27;94.20;100507.78;5011611;28;20215;-74
2022/10/10 01:45:49;;;;;;;0.00;0.00;;;;;;;7.13;94.86;100507.66;5011341;28;20641;-74
2022/10/10 01:48:19;;;;;;;0.07;0.07;;;;;;;7.33;94.99;100512.06;5011568;28;20655;-74
2022/10/10 01:51:17;;;;;;;0.00;0.00;;;;;;;7.67;94.46;100520.13;5026535;28;20180;-73
2022/10/10 01:53:42;;;;;;;0.00;0.00;;;;;;;7.94;92.69;100518.69;5008439;28;20214;-74
2022/10/10 01:56:18;;;;;;;0.13;0.13;;;;;;;8.18;91.95;100507.75;5026181;28;20208;-74
2022/10/10 01:59:07;;;;;;;0.00;0.00;;;;;;;8.43;90.06;100510.16;5011439;28;20176;-75
2022/10/10 02:01:47;;;;;;;0.00;0.00;;;;;;;8.63;89.00;100509.03;5026664;28;20628;-75
2022/10/10 02:04:15;;;;;;;0.00;0.00;;;;;;;8.74;87.66;100510.47;5011162;28;20191;-73
2022/10/10 02:06:50;;;;;;;0.00;0.00;;;;;;;8.74;86.57;100504.22;5011033;28;20172;-74
2022/10/10 02:09:24;;;;;;;0.17;0.17;;;;;;;8.84;86.54;100510.31;5025009;28;20182;-74
2022/10/10 02:11:50;;;;;;;0.53;0.47;;;;;;;8.95;86.12;100506.28;5029989;28;20214;-74
2022/10/10 02:14:21;;;;;;;0.00;0.00;;;;;;;8.79;85.73;100501.41;5030632;28;20531;-74
2022/10/10 02:16:50;;;;;;;0.00;0.00;;;;;;;8.08;86.75;100497.81;5030576;28;20378;-73
2022/10/10 02:19:18;;;;;;;0.00;0.00;;;;;;;7.85;88.31;100495.97;5030917;28;20601;-74
2022/10/10 02:21:47;;;;;;;0.00;0.00;;;;;;;7.65;89.74;100489.66;5030540;28;20180;-74
2022/10/10 02:24:13;;;;;;;0.00;0.00;;;;;;;7.39;91.38;100491.09;5030817;28;20182;-74
2022/10/10 02:26:42;;;;;;;0.00;0.00;;;;;;;7.56;91.78;100486.00;5030473;28;20171;-73
2022/10/10 02:29:25;;;;;;;0.00;0.00;;;;;;;7.34;92.67;100470.19;5030768;28;20176;-74
2022/10/10 02:32:09;;;;;;;0.00;0.00;;;;;;;7.32;92.99;100474.31;5030711;28;20497;-74
2022/10/10 02:34:40;;;;;;;0.00;0.00;;;;;;;7.27;93.18;100471.66;5030532;28;20282;-74
2022/10/10 02:37:11;;;;;;;0.37;0.30;;;;;;;7.45;93.73;100471.69;5030337;28;20788;-73
2022/10/10 02:39:42;;;;;;;0.00;0.00;;;;;;;7.54;92.74;100473.78;5030814;28;20282;-74
2022/10/10 02:42:09;;;;;;;0.50;0.40;;;;;;;7.69;92.78;100473.59;5030660;28;20172;-74
2022/10/10 02:44:36;;;;;;;0.00;0.00;;;;;;;7.69;91.82;100468.97;5030510;28;20210;-74
2022/10/10 02:47:02;;;;;;;0.00;0.00;;;;;;;7.66;91.65;100472.25;5030293;28;20180;-73
2022/10/10 02:49:30;;;;;;;0.00;0.00;;;;;;;7.91;91.62;100464.88;5030493;28;20176;-74
2022/10/10 02:51:56;;;;;;;0.00;0.00;;;;;;;7.92;90.83;100470.00;5030320;28;20180;-73
2022/10/10 02:54:21;;;;;;;0.00;0.00;;;;;;;7.83;90.55;100471.78;5030496;28;20175;-73
2022/10/10 02:56:47;;;;;;;0.00;0.00;;;;;;;7.64;90.50;100455.41;5030206;28;20186;-74
2022/10/10 02:59:12;;;;;;;0.00;0.00;;;;;;;7.43;90.79;100462.22;5030446;28;20249;-74
2022/10/10 03:01:38;;;;;;;0.00;0.00;;;;;;;7.41;91.29;100467.94;5030405;28;20180;-74
2022/10/10 03:04:03;;;;;;;0.00;0.00;;;;;;;7.20;92.58;100460.31;5030127;28;20199;-74
2022/10/10 03:06:28;;;;;;;0.00;0.00;;;;;;;7.19;93.85;100459.50;5012584;28;20176;-74
2022/10/10 03:08:54;;;;;;;0.63;0.63;;;;;;;7.12;94.41;100454.41;5030289;28;20178;-74
2022/10/10 03:11:19;;;;;;;0.00;0.00;;;;;;;7.28;94.37;100465.13;5030230;28;20168;-74
2022/10/10 03:13:44;;;;;;;0.00;0.00;;;;;;;7.38;94.19;100467.72;5030397;28;20211;-73
2022/10/10 03:16:10;;;;;;;0.40;0.10;;;;;;;7.59;93.79;100465.56;5026655;28;20208;-74
2022/10/10 03:18:36;;;;;;;0.00;0.00;;;;;;;7.75;92.73;100462.34;5010533;28;20173;-74
2022/10/10 03:21:02;;;;;;;0.10;0.10;;;;;;;7.99;92.02;100458.78;5010740;28;20175;-73
2022/10/10 03:23:27;;;;;;;0.00;0.00;;;;;;;8.10;91.13;100457.53;5012689;28;20183;-74
2022/10/10 03:25:52;;;;;;;0.00;0.00;;;;;;;8.09;90.23;100466.78;5013764;28;20664;-74
2022/10/10 03:28:18;;;;;;;0.00;0.00;;;;;;;7.73;90.21;100458.31;5014085;28;20478;-74
2022/10/10 03:30:43;;;;;;;0.00;0.00;;;;;;;7.71;90.04;100468.69;5029180;28;20186;-73
2022/10/10 03:33:09;;;;;;;0.00;0.00;;;;;;;7.72;91.28;100462.94;5014050;28;20177;-74
2022/10/10 03:35:34;;;;;;;0.00;0.00;;;;;;;7.83;91.52;100460.09;5028798;28;20215;-74
2022/10/10 03:38:00;;;;;;;3.23;3.13;;;;;;;7.77;91.10;100464.78;5013791;28;20597;-73
2022/10/10 03:40:27;;;;;;;0.00;0.00;;;;;;;7.81;91.14;100460.41;5014149;28;20190;-72
2022/10/10 03:42:53;;;;;;;0.00;0.00;;;;;;;7.94;91.52;100464.28;5013838;28;20195;-73
2022/10/10 03:45:18;;;;;;;0.20;0.20;;;;;;;7.89;91.33;100470.59;5015465;28;20188;-73
2022/10/10 03:47:43;;;;;;;0.00;0.00;;;;;;;7.90;91.47;100463.25;5013528;28;20191;-73
2022/10/10 03:50:09;;;;;;;0.00;0.00;;;;;;;7.90;91.59;100452.38;5013516;28;20185;-73
2022/10/10 03:52:34;;;;;;;0.00;0.00;;;;;;;7.85;91.76;100453.25;5028746;28;20234;-73
2022/10/10 03:55:00;;;;;;;0.17;0.17;;;;;;;7.75;92.09;100451.47;5013590;28;20215;-73
2022/10/10 03:57:25;;;;;;;2.27;0.43;;;;;;;7.66;93.40;100449.69;5013348;28;20192;-73
2022/10/10 03:59:50;;;;;;;0.00;0.00;;;;;;;7.62;93.62;100445.94;5013560;28;20188;-73
2022/10/10 04:02:16;;;;;;;0.00;0.00;;;;;;;7.17;95.29;100439.97;5013468;28;20180;-73
2022/10/10 04:04:41;;;;;;;0.00;0.00;;;;;;;7.02;95.93;100437.41;5013469;28;20254;-73
2022/10/10 04:07:06;;;;;;;0.00;0.00;;;;;;;7.24;96.42;100439.63;5013136;28;20628;-73
2022/10/10 04:09:31;;;;;;;0.00;0.00;;;;;;;7.34;96.62;100439.50;5013402;28;20322;-73
2022/10/10 04:11:58;;;;;;;0.10;0.10;;;;;;;7.32;96.34;100437.06;5013194;28;20244;-73
2022/10/10 04:14:23;;;;;;;0.13;0.13;;;;;;;7.20;96.48;100436.66;5013270;28;20173;-73
2022/10/10 04:16:48;;;;;;;0.10;0.10;;;;;;;6.98;97.46;100429.03;5013045;28;20756;-72
2022/10/10 04:19:14;;;;;;;0.00;0.00;;;;;;;6.80;98.28;100418.91;5013181;28;20180;-73
2022/10/10 04:21:39;;;;;;;1.20;1.20;;;;;;;6.66;99.61;100421.47;5013002;28;20314;-73
2022/10/10 04:24:05;;;;;;;0.50;0.50;;;;;;;6.55;100.00;100426.19;5013216;28;20176;-73
2022/10/10 04:26:30;;;;;;;0.00;0.00;;;;;;;6.42;100.00;100423.31;5012795;28;20177;-73
2022/10/10 04:28:55;;;;;;;0.00;0.00;;;;;;;6.32;100.00;100423.38;5013054;28;20319;-73
2022/10/10 04:31:20;;;;;;;0.57;0.57;;;;;;;6.32;100.00;100424.19;5012887;28;20176;-73
2022/10/10 04:33:46;;;;;;;0.00;0.00;;;;;;;6.41;100.00;100417.06;5027615;28;20195;-73
2022/10/10 04:36:11;;;;;;;0.00;0.00;;;;;;;6.55;100.00;100407.19;5012182;28;20212;-73
2022/10/10 04:38:37;;;;;;;0.00;0.00;;;;;;;6.72;100.00;100400.50;5013058;28;20179;-73
2022/10/10 04:41:02;;;;;;;0.20;0.20;;;;;;;6.90;100.00;100402.50;5012673;28;20180;-73
2022/10/10 04:43:27;;;;;;;4.90;4.43;;;;;;;7.06;100.00;100406.66;5012737;28;20648;-73
2022/10/10 04:45:56;;;;;;;0.00;0.00;;;;;;;7.23;100.00;100410.81;5012487;28;20177;-73
2022/10/10 04:48:21;;;;;;;0.00;0.00;;;;;;;7.33;100.00;100405.25;5012584;28;20176;-72
2022/10/10 04:50:54;;;;;;;0.00;0.00;;;;;;;7.41;97.83;100408.16;5012724;28;20656;-73
2022/10/10 04:53:20;;;;;;;0.00;0.00;;;;;;;7.46;96.18;100407.28;5012649;28;20176;-73
2022/10/10 04:55:45;;;;;;;0.00;0.00;;;;;;;7.53;95.41;100406.94;5027826;28;20204;-73
2022/10/10 04:58:11;;;;;;;0.93;0.17;;;;;;;7.63;94.78;100401.34;5012908;28;20184;-73
2022/10/10 05:00:37;;;;;;;0.00;0.00;;;;;;;7.68;94.30;100396.66;5032153;28;20176;-73
2022/10/10 05:03:03;;;;;;;0.20;0.20;;;;;;;7.83;93.36;100389.38;5032046;28;20290;-73
2022/10/10 05:05:29;;;;;;;0.00;0.00;;;;;;;7.88;92.27;100394.75;5032099;28;20184;-73
2022/10/10 05:07:55;;;;;;;0.00;0.00;;;;;;;7.88;92.52;100392.03;5032130;28;20208;-73
2022/10/10 05:10:20;;;;;;;0.60;0.60;;;;;;;7.92;91.70;100391.13;5031968;28;20278;-73
2022/10/10 05:12:45;;;;;;;0.00;0.00;;;;;;;7.95;90.86;100384.28;5031838;28;20168;-73
2022/10/10 05:15:11;;;;;;;0.00;0.00;;;;;;;7.93;91.20;100381.88;5031816;28;20597;-73
2022/10/10 05:17:36;;;;;;;0.00;0.00;;;;;;;7.97;90.92;100388.34;5031500;28;20179;-73
2022/10/10 05:20:01;;;;;;;0.00;0.00;;;;;;;7.99;90.89;100385.34;5031909;28;20619;-73
2022/10/10 05:22:27;;;;;;;0.00;0.00;;;;;;;7.97;90.24;100376.66;5031602;28;20164;-73
2022/10/10 05:24:52;;;;;;;0.20;0.20;;;;;;;8.02;90.01;100377.38;5031615;28;20703;-73
2022/10/10 05:27:17;;;;;;;0.00;0.00;;;;;;;7.99;89.64;100367.09;5031526;28;20230;-73
2022/10/10 05:29:43;;;;;;;0.00;0.00;;;;;;;8.00;89.92;100366.00;5031583;28;20176;-73
2022/10/10 05:32:08;;;;;;;0.00;0.00;;;;;;;7.96;89.80;100369.59;5030019;28;20175;-72
2022/10/10 05:34:33;;;;;;;0.00;0.00;;;;;;;7.85;90.42;100365.41;5031456;28;20184;-73
2022/10/10 05:36:59;;;;;;;0.57;0.57;;;;;;;7.88;91.10;100368.34;5031221;28;20179;-75
2022/10/10 05:39:24;;;;;;;0.20;0.20;;;;;;;7.91;90.16;100359.59;5016018;28;20865;-75
2022/10/10 05:41:49;;;;;;;0.00;0.00;;;;;;;7.89;90.10;100358.28;5011651;28;20223;-74
2022/10/10 05:44:14;;;;;;;0.53;0.53;;;;;;;7.90;90.51;100357.16;5011740;28;20183;-75
2022/10/10 05:46:40;;;;;;;0.00;0.00;;;;;;;7.95;90.41;100354.34;5011310;28;20208;-75
2022/10/10 05:49:05;;;;;;;0.00;0.00;;;;;;;7.90;90.13;100357.97;5011671;28;20185;-75
2022/10/10 05:51:30;;;;;;;0.07;0.07;;;;;;;7.90;90.13;100360.69;5011408;28;20184;-75
2022/10/10 05:53:56;;;;;;;0.10;0.10;;;;;;;7.86;91.06;100353.44;5011442;28;20636;-75
2022/10/10 05:56:22;;;;;;;0.00;0.00;;;;;;;7.96;90.89;100348.66;5011148;28;20212;-75
2022/10/10 05:58:49;;;;;;;1.70;0.67;;;;;;;8.04;89.90;100349.88;5016817;28;20568;-74
2022/10/10 06:01:15;;;;;;;0.00;0.00;;;;;;;8.19;89.33;100357.78;5013092;28;20184;-75
2022/10/10 06:03:40;;;;;;;0.00;0.00;;;;;;;8.27;88.64;100354.41;5030875;28;20334;-75
2022/10/10 06:06:05;;;;;;;0.00;0.00;;;;;;;8.32;88.56;100357.03;5030755;28;20258;-74
2022/10/10 06:08:31;;;;;;;0.00;0.00;;;;;;;8.34;88.50;100346.66;5030984;28;20237;-74
2022/10/10 06:11:02;;;;;;;0.00;0.00;;;;;;;8.43;88.01;100341.38;5030866;28;20522;-75
2022/10/10 06:13:27;;;;;;;0.13;0.10;;;;;;;8.46;87.64;100346.19;5030806;28;20179;-76
2022/10/10 06:15:53;;;;;;;4.73;0.83;;;;;;;8.53;87.51;100345.78;5030382;28;20208;-75
2022/10/10 06:18:19;;;;;;;2.70;0.40;;;;;;;8.60;87.29;100343.50;5030703;28;20172;-74
2022/10/10 06:20:44;;;;;;;0.97;0.90;;;;;;;8.64;86.25;100337.16;5030593;28;20176;-76
2022/10/10 06:23:09;;;;;;;0.10;0.10;;;;;;;8.69;86.25;100338.19;5030700;28;20259;-75
2022/10/10 06:25:35;;;;;;;2.20;2.10;;;;;;;8.71;86.00;100342.22;5029441;28;20190;-75
2022/10/10 06:28:01;;;;;;;0.70;0.70;;;;;;;8.74;86.22;100354.41;5030631;28;20263;-75
2022/10/10 06:30:26;;;;;;;0.40;0.40;;;;;;;8.82;85.69;100349.06;5030700;28;20279;-75
2022/10/10 06:32:52;;;;;;;0.53;0.50;;;;;;;8.86;85.81;100360.19;5020280;28;20216;-75
2022/10/10 06:35:18;;;;;;;0.40;0.17;;;;;;;8.85;85.67;100350.41;5011029;28;20207;-75
2022/10/10 06:37:43;;;;;;;0.47;0.47;;;;;;;8.88;85.30;100358.75;5010732;28;20176;-74
2022/10/10 06:40:09;;;;;;;0.23;0.23;;;;;;;8.86;85.74;100357.47;5010955;28;20230;-76
2022/10/10 06:42:34;;;;;;;0.40;0.40;;;;;;;8.87;86.05;100357.16;5010844;28;20199;-75
2022/10/10 06:44:59;;;;;;;0.10;0.10;;;;;;;8.90;85.53;100362.00;5010823;28;20187;-75
2022/10/10 06:47:24;;;;;;;0.63;0.63;;;;;;;8.96;85.79;100359.97;5010892;28;20185;-75
2022/10/10 06:49:50;;;;;;;0.00;0.00;;;;;;;9.01;85.92;100353.63;5010860;28;20187;-74
2022/10/10 06:52:15;;;;;;;0.20;0.20;;;;;;;9.06;86.17;100359.78;5011019;28;20230;-75
2022/10/10 06:54:41;;;;;;;0.43;0.43;;;;;;;9.14;85.70;100363.72;5026057;28;20187;-74
2022/10/10 06:57:06;;;;;;;0.77;0.77;;;;;;;9.23;85.32;100367.31;5025933;28;20183;-75
2022/10/10 06:59:32;;;;;;;1.00;0.67;;;;;;;9.28;85.22;100361.78;5014142;28;20176;-75
2022/10/10 07:01:57;;;;;;;0.73;0.40;;;;;;;9.40;84.68;100363.97;5014551;28;20177;-75
2022/10/10 07:04:22;;;;;;;2.03;1.13;;;;;;;9.52;84.24;100367.78;5013958;28;20188;-76
2022/10/10 07:06:47;;;;;;;0.50;0.50;;;;;;;9.60;83.85;100363.53;5013809;28;20538;-74
2022/10/10 07:09:13;;;;;;;1.03;0.30;;;;;;;9.64;84.38;100367.28;5013906;28;20222;-74
2022/10/10 07:11:44;;;;;;;0.10;0.10;;;;;;;9.75;83.40;100370.59;5014056;28;20181;-74
2022/10/10 07:14:09;;;;;;;0.90;0.90;;;;;;;9.82;83.53;100371.75;5013947;28;20204;-75
2022/10/10 07:16:34;;;;;;;0.10;0.10;;;;;;;9.93;82.97;100364.16;5013046;28;20725;-76
2022/10/10 07:18:59;;;;;;;0.23;0.20;;;;;;;10.03;82.94;100376.75;5013924;28;20176;-75
2022/10/10 07:21:25;;;;;;;0.93;0.60;;;;;;;10.13;82.21;100363.69;5013782;28;20183;-76
2022/10/10 07:23:51;;;;;;;3.50;0.53;;;;;;;10.16;82.57;100362.25;5013597;28;20217;-75
2022/10/10 07:26:19;;;;;;;2.03;1.20;;;;;;;10.29;82.14;100377.78;5013464;28;20173;-75
2022/10/10 07:28:45;;;;;;;1.53;0.90;;;;;;;10.34;82.03;100383.13;5013688;28;20176;-75
2022/10/10 07:31:10;;;;;;;0.00;0.00;;;;;;;10.41;81.70;100375.31;5013619;28;20303;-75
2022/10/10 07:33:42;;;;;;;0.67;0.67;;;;;;;10.50;81.21;100380.81;5013541;28;20204;-75
2022/10/10 07:36:07;;;;;;;0.70;0.63;;;;;;;10.60;80.16;100383.28;5012383;28;20212;-75
2022/10/10 07:38:34;;;;;;;0.00;0.00;;;;;;;10.65;80.08;100385.06;5013573;28;20251;-76
2022/10/10 07:41:03;;;;;;;0.20;0.20;;;;;;;10.64;80.58;100384.25;4996346;28;20271;-79
2022/10/10 07:43:28;;;;;;;0.80;0.40;;;;;;;10.67;81.34;100383.63;5013913;28;20279;-79
2022/10/10 07:45:54;;;;;;;0.30;0.30;;;;;;;10.75;80.30;100384.00;5013716;28;20264;-83
2022/10/10 07:48:19;;;;;;;1.87;1.07;;;;;;;10.78;80.80;100372.44;5013855;28;20272;-78
2022/10/10 07:50:44;;;;;;;0.70;0.70;;;;;;;10.87;80.16;100376.84;5013753;28;20176;-75
2022/10/10 07:53:10;;;;;;;2.27;0.53;;;;;;;10.94;79.80;100381.84;5013847;28;20181;-75
2022/10/10 07:55:40;;;;;;;1.27;1.27;;;;;;;11.01;79.07;100382.19;5013626;28;20215;-75
2022/10/10 07:58:05;;;;;;;0.30;0.30;;;;;;;11.05;80.09;100371.44;5013719;28;20180;-74
2022/10/10 08:00:32;;;;;;;0.07;0.07;;;;;;;11.12;80.63;100369.03;5011133;28;20192;-75
2022/10/10 08:02:57;;;;;;;1.97;1.07;;;;;;;11.16;79.74;100368.09;5012745;28;20199;-74
2022/10/10 08:05:22;;;;;;;0.00;0.00;;;;;;;11.23;79.10;100365.69;5012992;28;20263;-74
2022/10/10 08:07:48;;;;;;;0.93;0.93;;;;;;;11.30;79.40;100357.84;5012916;28;20183;-75
2022/10/10 08:10:14;;;;;;;2.73;1.50;;;;;;;11.39;79.33;100366.06;5012134;28;20207;-75
2022/10/10 08:12:39;;;;;;;0.20;0.20;;;;;;;11.45;79.36;100367.53;5013003;28;20629;-74
2022/10/10 08:15:05;;;;;;;4.63;0.70;;;;;;;11.49;79.28;100370.44;5012949;28;20258;-74
2022/10/10 08:17:31;;;;;;;1.13;1.07;;;;;;;11.54;78.99;100362.84;4994870;28;20271;-75
2022/10/10 08:19:56;;;;;;;0.20;0.20;;;;;;;11.57;78.60;100364.16;5013290;28;20692;-74
2022/10/10 08:22:21;;;;;;;0.07;0.07;;;;;;;11.63;79.22;100366.41;5012989;28;20668;-73
2022/10/10 08:24:46;;;;;;;0.60;0.50;;;;;;;11.74;78.80;100361.44;5012990;28;20183;-73
2022/10/10 08:27:13;;;;;;;0.50;0.40;;;;;;;11.84;78.46;100363.88;5012524;28;20692;-74
2022/10/10 08:29:38;;;;;;;1.80;1.17;;;;;;;11.89;78.16;100354.72;5012806;28;20264;-74
2022/10/10 08:32:04;;;;;;;0.10;0.10;;;;;;;11.91;78.33;100355.19;5012783;28;20311;-74
2022/10/10 08:34:29;;;;;;;0.40;0.30;;;;;;;12.01;78.22;100357.63;5012511;28;20176;-74
2022/10/10 08:36:54;;;;;;;4.73;0.50;;;;;;;12.06;78.37;100359.38;5011936;28;20261;-74
2022/10/10 08:39:19;;;;;;;1.20;1.10;;;;;;;12.19;76.94;100358.41;4992719;28;20185;-73
2022/10/10 08:41:49;;;;;;;0.00;0.00;;;;;;;12.20;77.08;100344.38;5015170;28;20189;-74
2022/10/10 08:44:36;;;;;;;0.10;0.10;;;;;;;12.34;77.21;100351.63;5014726;28;20219;-74
2022/10/10 08:47:17;;;;;;;0.73;0.73;;;;;;;12.43;76.74;100342.22;5013813;28;20184;-74
2022/10/10 08:49:56;;;;;;;0.00;0.00;;;;;;;12.49;76.68;100346.41;5012930;28;20173;-74
2022/10/10 08:52:30;;;;;;;0.13;0.13;;;;;;;12.62;76.77;100344.63;5012499;28;20185;-75
2022/10/10 08:54:57;;;;;;;0.73;0.60;;;;;;;12.66;76.79;100342.81;5012685;28;20211;-75
2022/10/10 08:57:50;;;;;;;0.47;0.47;;;;;;;12.75;76.28;100345.53;5012543;28;20260;-74
2022/10/10 09:00:19;;;;;;;1.40;1.33;;;;;;;12.74;75.96;100342.00;5012605;28;20173;-73
2022/10/10 09:02:56;;;;;;;0.37;0.30;;;;;;;12.84;75.92;100335.31;5012259;28;21153;-71
2022/10/10 09:05:40;;;;;;;0.40;0.40;;;;;;;13.02;76.02;100336.88;5023850;28;20269;-73
2022/10/10 09:08:14;;;;;;;0.10;0.10;;;;;;;13.06;75.49;100342.50;5031962;28;20237;-74
2022/10/10 09:10:39;;;;;;;0.03;0.03;;;;;;;13.22;76.46;100342.78;5015232;28;20579;-73
2022/10/10 09:13:27;;;;;;;0.00;0.00;;;;;;;13.29;75.53;100340.28;5012289;28;20233;-74
2022/10/10 09:16:00;;;;;;;0.10;0.00;;;;;;;13.23;74.67;100325.16;5011165;28;20665;-74
2022/10/10 09:18:28;;;;;;;0.00;0.00;;;;;;;13.32;75.17;100323.19;5022805;28;20174;-73
2022/10/10 09:21:26;;;;;;;14.43;1.70;;;;;;;13.48;74.93;100326.16;5031568;28;20259;-73
2022/10/10 09:24:20;;;;;;;0.20;0.20;;;;;;;13.49;73.99;100333.25;5019953;28;20274;-72
2022/10/10 09:26:51;;;;;;;0.17;0.17;;;;;;;13.55;74.21;100338.19;5017148;28;20196;-73
2022/10/10 09:29:41;;;;;;;0.00;0.00;;;;;;;13.57;73.23;100327.66;5031622;28;20658;-72
2022/10/10 09:32:15;;;;;;;0.23;0.23;;;;;;;13.62;73.71;100319.25;5031423;28;20185;-72
2022/10/10 09:34:47;;;;;;;0.20;0.20;;;;;;;13.63;73.69;100323.59;5031281;28;20583;-73
2022/10/10 09:37:17;;;;;;;0.00;0.00;;;;;;;13.73;74.12;100313.34;5013665;28;20641;-73
2022/10/10 09:39:55;;;;;;;0.07;0.07;;;;;;;13.87;74.05;100331.16;5031627;28;20186;-74
2022/10/10 09:42:36;;;;;;;0.50;0.50;;;;;;;14.00;72.72;100321.03;5031153;28;20170;-73
2022/10/10 09:45:02;;;;;;;0.40;0.40;;;;;;;14.06;72.49;100316.94;5031335;28;20504;-73
2022/10/10 09:47:28;;;;;;;0.83;0.83;;;;;;;14.05;72.38;100306.28;5031002;28;20175;-74
2022/10/10 09:49:54;;;;;;;1.37;1.27;;;;;;;14.23;72.76;100314.03;5031069;28;20172;-73
2022/10/10 09:52:22;;;;;;;0.63;0.63;;;;;;;14.33;71.72;100309.25;5013372;28;20187;-73
2022/10/10 09:54:49;;;;;;;20.37;0.77;;;;;;;14.35;71.55;100305.00;5030956;28;20188;-73
2022/10/10 09:57:15;;;;;;;1.80;1.13;;;;;;;14.42;72.70;100318.19;5030803;28;20175;-72
2022/10/10 09:59:46;;;;;;;0.87;0.87;;;;;;;14.45;71.16;100314.78;5030963;28;20190;-74
2022/10/10 10:02:18;;;;;;;0.97;0.90;;;;;;;14.53;71.32;100311.13;5013196;28;20182;-73
2022/10/10 10:04:44;;;;;;;0.30;0.27;;;;;;;14.54;71.07;100310.81;5031015;28;20738;-73
2022/10/10 10:07:30;;;;;;;2.43;1.03;;;;;;;14.60;70.49;100319.63;5030686;28;20176;-73
2022/10/10 10:10:16;;;;;;;3.33;0.93;;;;;;;14.67;70.93;100327.31;5013118;28;20186;-73
2022/10/10 10:12:43;;;;;;;0.00;0.00;;;;;;;14.76;71.14;100328.84;5030818;28;20697;-73
2022/10/10 10:15:30;;;;;;;0.13;0.10;;;;;;;14.89;70.65;100324.13;5030699;28;20261;-73
2022/10/10 10:18:26;;;;;;;0.10;0.10;;;;;;;14.98;70.70;100318.50;5030403;28;20184;-73
2022/10/10 10:21:08;;;;;;;0.30;0.30;;;;;;;15.13;70.71;100321.38;5030720;28;20235;-72
2022/10/10 10:23:41;;;;;;;0.10;0.07;;;;;;;15.31;70.34;100326.63;5030752;28;20160;-73
2022/10/10 10:26:42;;;;;;;0.20;0.20;;;;;;;15.28;68.83;100324.56;5030273;28;20176;-73
2022/10/10 10:29:29;;;;;;;0.10;0.10;;;;;;;15.36;68.77;100321.72;5030697;28;20199;-73
2022/10/10 10:32:03;;;;;;;0.63;0.43;;;;;;;15.46;68.35;100323.16;5029805;28;20276;-73
2022/10/10 10:34:37;;;;;;;0.00;0.00;;;;;;;15.54;68.78;100311.22;5030496;28;20258;-73
2022/10/10 10:37:55;;;;;;;1.83;0.97;;;;;;;15.55;67.90;100315.59;5030409;28;20238;-73
2022/10/10 10:40:38;;;;;;;0.57;0.50;;;;;;;15.54;67.45;100319.50;4983534;28;20307;-73
2022/10/10 10:43:26;;;;;;;11.63;0.53;;;;;;;15.70;69.09;100322.34;5028429;28;20179;-73
2022/10/10 10:46:15;;;;;;;1.23;0.73;;;;;;;15.84;67.55;100313.69;5013854;28;20675;-73
2022/10/10 10:48:48;;;;;;;0.33;0.33;;;;;;;15.75;66.76;100302.81;5010765;28;20179;-73
2022/10/10 10:51:31;;;;;;;0.10;0.10;;;;;;;15.76;66.40;100310.72;5010758;28;20215;-74
2022/10/10 10:53:57;;;;;;;1.10;1.03;;;;;;;15.79;66.44;100317.50;5010857;28;20194;-73
2022/10/10 10:56:46;;;;;;;0.87;0.87;;;;;;;15.81;66.27;100317.97;5010661;28;20672;-72
2022/10/10 10:59:32;;;;;;;0.47;0.47;;;;;;;15.70;66.21;100311.31;5010852;28;20173;-73
2022/10/10 11:02:06;;;;;;;0.30;0.30;;;;;;;15.80;66.60;100324.63;5010726;28;20211;-75
2022/10/10 11:05:09;;;;;;;0.13;0.13;;;;;;;15.96;66.73;100310.91;5010621;28;20191;-74
2022/10/10 11:08:05;;;;;;;0.00;0.00;;;;;;;16.13;66.75;100315.31;5010647;28;20184;-74
2022/10/10 11:10:39;;;;;;;0.20;0.13;;;;;;;16.10;65.98;100308.53;5009582;28;20208;-75
2022/10/10 11:13:13;;;;;;;1.23;0.57;;;;;;;16.16;66.40;100307.13;5025626;28;20210;-75
2022/10/10 11:15:44;;;;;;;0.30;0.30;;;;;;;16.21;65.75;100303.31;5009989;28;20210;-75
2022/10/10 11:18:24;;;;;;;0.20;0.20;;;;;;;16.29;65.39;100299.59;5005616;28;20193;-75
2022/10/10 11:21:14;;;;;;;0.37;0.37;;;;;;;16.43;66.28;100297.22;5014582;28;20271;-72
2022/10/10 11:23:44;;;;;;;0.00;0.00;;;;;;;16.44;66.20;100292.50;5010623;28;20181;-72
2022/10/10 11:26:18;;;;;;;0.47;0.47;;;;;;;16.48;65.51;100296.13;5028987;28;20267;-71
2022/10/10 11:29:00;;;;;;;1.13;1.13;;;;;;;16.44;65.30;100300.78;5030303;28;20164;-71
2022/10/10 11:31:31;;;;;;;0.53;0.53;;;;;;;16.38;65.54;100300.25;5030214;28;20545;-71
2022/10/10 11:34:05;;;;;;;0.30;0.30;;;;;;;16.41;65.26;100287.69;5030182;28;20172;-71
2022/10/10 11:36:36;;;;;;;0.20;0.20;;;;;;;16.61;66.45;100292.16;5030285;28;20246;-72
2022/10/10 11:39:13;;;;;;;2.83;1.50;;;;;;;16.49;65.13;100287.53;5030168;28;20176;-71
2022/10/10 11:41:49;;;;;;;0.10;0.10;;;;;;;16.42;64.91;100289.28;5030124;28;20640;-72
2022/10/10 11:44:30;;;;;;;0.00;0.00;;;;;;;16.50;65.97;100289.13;5031910;28;20164;-72